Tongliao, China
Current Conditions -  °F | °C
As of 1:30 PM on Wednesday 26 Nov 2014 (Local Time) from ZYTX Reporting Station
Clear Clear  
Wind Chill: 54°   Ceiling: Unl
Heat Index: 54°   Visibility: 6mi
Dew Point: 18°   Wind: 20mph
Humidity: 24%   Direction: 210°SSW
Pressure: 29.94"   Gusts: 31mph
Location:  43.62°N, 122.27°E
Report Text: ZYTX 260530Z 21009G14MPS CAVOK 12/M08 Q1014 NOSIG
Loading
Personal Weather Stations






























Interactive Weather Map New forecast layout! Learn more

10-Day Weather Forecast

Advertisements
Track Severe Weather on mobile